sensor_id;sensor_type;location;lat;lon;timestamp;pressure;altitude;pressure_sealevel;temperature;humidity
55679;BME280;41573;51.446;-2.018;2023-04-15T08:08:17;101130.84;;;9.92;100.00
55679;BME280;41573;51.446;-2.018;2023-04-15T08:10:42;101125.84;;;9.86;100.00
55679;BME280;41573;51.446;-2.018;2023-04-15T08:13:08;101123.94;;;9.88;100.00
55679;BME280;41573;51.446;-2.018;2023-04-15T08:15:33;101124.09;;;9.84;100.00
55679;BME280;41573;51.446;-2.018;2023-04-15T08:18:00;101122.25;;;9.87;100.00
55679;BME280;41573;51.446;-2.018;2023-04-15T08:20:25;101129.94;;;10.10;100.00
55679;BME280;41573;51.446;-2.018;2023-04-15T08:22:51;101129.31;;;10.05;100.00
55679;BME280;41573;51.446;-2.018;2023-04-15T08:25:17;101129.25;;;10.07;100.00
55679;BME280;41573;51.446;-2.018;2023-04-15T08:27:43;101141.13;;;10.36;100.00
55679;BME280;41573;51.446;-2.018;2023-04-15T08:30:09;101139.19;;;10.40;100.00
55679;BME280;41573;51.446;-2.018;2023-04-15T08:32:35;101141.16;;;10.17;100.00
55679;BME280;41573;51.446;-2.018;2023-04-15T08:35:01;101139.00;;;10.06;100.00
55679;BME280;41573;51.446;-2.018;2023-04-15T08:37:27;101144.66;;;10.54;100.00
55679;BME280;41573;51.446;-2.018;2023-04-15T08:39:52;101154.19;;;10.76;100.00
55679;BME280;41573;51.446;-2.018;2023-04-15T08:42:22;101161.59;;;11.04;100.00
55679;BME280;41573;51.446;-2.018;2023-04-15T08:44:52;101176.03;;;11.17;100.00
55679;BME280;41573;51.446;-2.018;2023-04-15T08:47:19;101171.41;;;11.37;100.00
55679;BME280;41573;51.446;-2.018;2023-04-15T08:49:46;101171.63;;;11.66;100.00
55679;BME280;41573;51.446;-2.018;2023-04-15T08:52:18;101178.16;;;11.76;100.00
55679;BME280;41573;51.446;-2.018;2023-04-15T08:54:44;101173.31;;;11.51;100.00
55679;BME280;41573;51.446;-2.018;2023-04-15T08:57:10;101181.09;;;11.55;100.00
55679;BME280;41573;51.446;-2.018;2023-04-15T08:59:35;101177.81;;;11.50;100.00
55679;BME280;41573;51.446;-2.018;2023-04-15T09:02:02;101179.41;;;11.37;100.00
55679;BME280;41573;51.446;-2.018;2023-04-15T09:04:28;101175.91;;;11.03;100.00
55679;BME280;41573;51.446;-2.018;2023-04-15T09:06:53;101194.06;;;11.12;100.00
55679;BME280;41573;51.446;-2.018;2023-04-15T09:09:19;101202.47;;;11.38;100.00
55679;BME280;41573;51.446;-2.018;2023-04-15T09:11:44;101200.88;;;11.51;100.00
55679;BME280;41573;51.446;-2.018;2023-04-15T09:14:10;101217.69;;;11.36;100.00
55679;BME280;41573;51.446;-2.018;2023-04-15T09:16:55;101215.34;;;11.30;100.00
55679;BME280;41573;51.446;-2.018;2023-04-15T09:19:22;101228.84;;;11.27;100.00
55679;BME280;41573;51.446;-2.018;2023-04-15T09:21:50;101231.69;;;11.24;100.00
55679;BME280;41573;51.446;-2.018;2023-04-15T09:24:15;101221.47;;;11.32;100.00
55679;BME280;41573;51.446;-2.018;2023-04-15T09:26:41;101228.38;;;11.36;100.00
55679;BME280;41573;51.446;-2.018;2023-04-15T09:29:08;101231.97;;;11.35;100.00
55679;BME280;41573;51.446;-2.018;2023-04-15T09:31:35;101241.81;;;11.50;100.00
55679;BME280;41573;51.446;-2.018;2023-04-15T09:34:01;101241.94;;;11.65;100.00
55679;BME280;41573;51.446;-2.018;2023-04-15T09:36:26;101245.97;;;11.56;100.00
55679;BME280;41573;51.446;-2.018;2023-04-15T09:38:58;101248.75;;;11.70;100.00
55679;BME280;41573;51.446;-2.018;2023-04-15T09:41:25;101258.50;;;11.87;100.00
55679;BME280;41573;51.446;-2.018;2023-04-15T09:43:50;101263.66;;;11.90;100.00
55679;BME280;41573;51.446;-2.018;2023-04-15T09:46:16;101261.78;;;11.93;100.00
55679;BME280;41573;51.446;-2.018;2023-04-15T09:48:41;101258.53;;;12.03;100.00
55679;BME280;41573;51.446;-2.018;2023-04-15T09:51:07;101262.94;;;12.20;100.00
55679;BME280;41573;51.446;-2.018;2023-04-15T09:53:34;101264.50;;;12.24;100.00
55679;BME280;41573;51.446;-2.018;2023-04-15T09:56:01;101262.63;;;11.93;100.00
55679;BME280;41573;51.446;-2.018;2023-04-15T09:58:28;101276.69;;;11.97;100.00
55679;BME280;41573;51.446;-2.018;2023-04-15T10:00:56;101289.72;;;12.03;100.00
55679;BME280;41573;51.446;-2.018;2023-04-15T10:03:32;101287.16;;;12.01;100.00
55679;BME280;41573;51.446;-2.018;2023-04-15T10:05:59;101289.75;;;11.85;100.00
55679;BME280;41573;51.446;-2.018;2023-04-15T10:08:29;101319.00;;;12.04;100.00
55679;BME280;41573;51.446;-2.018;2023-04-15T10:10:55;101328.13;;;12.16;100.00
55679;BME280;41573;51.446;-2.018;2023-04-15T10:13:23;101337.63;;;12.38;100.00
55679;BME280;41573;51.446;-2.018;2023-04-15T10:16:19;101339.97;;;12.44;100.00
55679;BME280;41573;51.446;-2.018;2023-04-15T10:18:47;101342.81;;;12.41;100.00
55679;BME280;41573;51.446;-2.018;2023-04-15T10:21:15;101357.72;;;12.45;100.00
55679;BME280;41573;51.446;-2.018;2023-04-15T10:23:46;101354.25;;;12.43;100.00
55679;BME280;41573;51.446;-2.018;2023-04-15T10:26:12;101353.72;;;12.36;100.00
55679;BME280;41573;51.446;-2.018;2023-04-15T10:28:43;101376.69;;;12.56;100.00
55679;BME280;41573;51.446;-2.018;2023-04-15T10:31:10;101372.19;;;12.57;100.00
55679;BME280;41573;51.446;-2.018;2023-04-15T10:33:36;101374.59;;;12.46;100.00
55679;BME280;41573;51.446;-2.018;2023-04-15T10:36:03;101382.53;;;12.47;100.00
55679;BME280;41573;51.446;-2.018;2023-04-15T10:38:31;101398.81;;;12.43;100.00
55679;BME280;41573;51.446;-2.018;2023-04-15T10:43:53;101408.41;;;12.63;100.00
55679;BME280;41573;51.446;-2.018;2023-04-15T10:46:21;101404.75;;;12.48;100.00
55679;BME280;41573;51.446;-2.018;2023-04-15T10:48:51;101392.03;;;12.53;100.00
55679;BME280;41573;51.446;-2.018;2023-04-15T10:51:30;101424.72;;;12.74;100.00
55679;BME280;41573;51.446;-2.018;2023-04-15T10:53:59;101401.91;;;12.35;100.00
55679;BME280;41573;51.446;-2.018;2023-04-15T10:56:27;101416.69;;;12.74;100.00
55679;BME280;41573;51.446;-2.018;2023-04-15T10:58:52;101424.84;;;13.03;100.00
55679;BME280;41573;51.446;-2.018;2023-04-15T11:01:21;101421.13;;;13.21;100.00
55679;BME280;41573;51.446;-2.018;2023-04-15T11:03:49;101405.19;;;13.50;100.00
55679;BME280;41573;51.446;-2.018;2023-04-15T11:06:15;101410.38;;;13.53;100.00
55679;BME280;41573;51.446;-2.018;2023-04-15T11:08:57;101408.94;;;13.48;100.00
55679;BME280;41573;51.446;-2.018;2023-04-15T11:14:26;101413.19;;;13.36;100.00
55679;BME280;41573;51.446;-2.018;2023-04-15T11:16:55;101422.63;;;13.11;100.00
55679;BME280;41573;51.446;-2.018;2023-04-15T11:19:23;101426.69;;;13.02;100.00
55679;BME280;41573;51.446;-2.018;2023-04-15T11:21:49;101420.66;;;12.83;100.00
55679;BME280;41573;51.446;-2.018;2023-04-15T11:24:24;101430.03;;;12.90;100.00
55679;BME280;41573;51.446;-2.018;2023-04-15T11:27:00;101445.72;;;12.80;100.00
55679;BME280;41573;51.446;-2.018;2023-04-15T11:29:30;101442.81;;;13.01;100.00
55679;BME280;41573;51.446;-2.018;2023-04-15T11:32:07;101448.94;;;13.35;100.00
55679;BME280;41573;51.446;-2.018;2023-04-15T11:34:33;101437.88;;;13.86;100.00
55679;BME280;41573;51.446;-2.018;2023-04-15T11:37:03;101433.16;;;14.34;100.00
55679;BME280;41573;51.446;-2.018;2023-04-15T11:39:28;101427.09;;;14.59;100.00
55679;BME280;41573;51.446;-2.018;2023-04-15T11:41:53;101439.94;;;14.54;100.00
55679;BME280;41573;51.446;-2.018;2023-04-15T11:44:19;101409.72;;;14.23;100.00
55679;BME280;41573;51.446;-2.018;2023-04-15T11:46:44;101418.03;;;14.19;100.00
55679;BME280;41573;51.446;-2.018;2023-04-15T11:49:09;101443.94;;;14.18;100.00
55679;BME280;41573;51.446;-2.018;2023-04-15T11:51:35;101451.81;;;14.36;100.00
55679;BME280;41573;51.446;-2.018;2023-04-15T11:54:00;101445.38;;;14.24;100.00
55679;BME280;41573;51.446;-2.018;2023-04-15T11:56:26;101434.72;;;13.79;100.00
55679;BME280;41573;51.446;-2.018;2023-04-15T11:58:56;101426.00;;;13.75;100.00
55679;BME280;41573;51.446;-2.018;2023-04-15T12:01:33;101436.94;;;14.16;100.00
55679;BME280;41573;51.446;-2.018;2023-04-15T12:03:59;101442.34;;;14.30;100.00
55679;BME280;41573;51.446;-2.018;2023-04-15T12:06:31;101441.81;;;14.81;100.00
55679;BME280;41573;51.446;-2.018;2023-04-15T12:16:44;101429.31;;;14.38;100.00
55679;BME280;41573;51.446;-2.018;2023-04-15T12:19:12;101429.03;;;14.57;100.00
55679;BME280;41573;51.446;-2.018;2023-04-15T12:21:39;101429.09;;;15.12;100.00
55679;BME280;41573;51.446;-2.018;2023-04-15T12:24:07;101452.66;;;15.61;100.00
55679;BME280;41573;51.446;-2.018;2023-04-15T12:27:00;101446.88;;;15.27;100.00
55679;BME280;41573;51.446;-2.018;2023-04-15T12:29:27;101437.00;;;15.00;100.00
55679;BME280;41573;51.446;-2.018;2023-04-15T12:32:06;101442.22;;;14.75;100.00
55679;BME280;41573;51.446;-2.018;2023-04-15T12:34:37;101454.06;;;14.85;100.00
55679;BME280;41573;51.446;-2.018;2023-04-15T12:37:04;101442.03;;;15.20;100.00
55679;BME280;41573;51.446;-2.018;2023-04-15T12:39:33;101456.59;;;15.43;100.00
55679;BME280;41573;51.446;-2.018;2023-04-15T12:41:59;101464.03;;;15.79;100.00
55679;BME280;41573;51.446;-2.018;2023-04-15T12:44:24;101444.78;;;15.85;100.00
55679;BME280;41573;51.446;-2.018;2023-04-15T12:46:50;101461.41;;;15.78;100.00
55679;BME280;41573;51.446;-2.018;2023-04-15T12:49:17;101447.28;;;15.61;100.00
55679;BME280;41573;51.446;-2.018;2023-04-15T12:51:46;101443.00;;;15.72;100.00
55679;BME280;41573;51.446;-2.018;2023-04-15T12:54:12;101462.31;;;15.51;100.00
55679;BME280;41573;51.446;-2.018;2023-04-15T12:56:38;101477.13;;;15.02;100.00
55679;BME280;41573;51.446;-2.018;2023-04-15T12:59:03;101480.31;;;14.94;100.00
55679;BME280;41573;51.446;-2.018;2023-04-15T13:01:29;101466.22;;;15.05;100.00
55679;BME280;41573;51.446;-2.018;2023-04-15T13:03:54;101488.59;;;15.46;100.00
55679;BME280;41573;51.446;-2.018;2023-04-15T13:06:20;101499.81;;;15.93;100.00
55679;BME280;41573;51.446;-2.018;2023-04-15T13:08:45;101470.81;;;16.11;100.00
55679;BME280;41573;51.446;-2.018;2023-04-15T13:11:11;101466.28;;;16.24;100.00
55679;BME280;41573;51.446;-2.018;2023-04-15T13:13:36;101478.19;;;15.81;100.00
55679;BME280;41573;51.446;-2.018;2023-04-15T13:16:01;101488.28;;;15.50;100.00
55679;BME280;41573;51.446;-2.018;2023-04-15T13:18:27;101497.22;;;15.24;100.00
55679;BME280;41573;51.446;-2.018;2023-04-15T13:20:53;101492.94;;;14.92;100.00
55679;BME280;41573;51.446;-2.018;2023-04-15T13:23:20;101513.00;;;14.72;100.00
55679;BME280;41573;51.446;-2.018;2023-04-15T13:25:45;101515.56;;;14.74;100.00
55679;BME280;41573;51.446;-2.018;2023-04-15T13:28:11;101506.72;;;15.00;100.00
55679;BME280;41573;51.446;-2.018;2023-04-15T13:30:37;101504.00;;;15.15;100.00
55679;BME280;41573;51.446;-2.018;2023-04-15T13:33:03;101525.31;;;15.18;100.00
55679;BME280;41573;51.446;-2.018;2023-04-15T13:35:28;101510.47;;;15.40;100.00
55679;BME280;41573;51.446;-2.018;2023-04-15T13:37:53;101524.50;;;15.85;100.00
55679;BME280;41573;51.446;-2.018;2023-04-15T13:40:19;101511.22;;;16.61;100.00
55679;BME280;41573;51.446;-2.018;2023-04-15T13:42:45;101507.34;;;16.91;100.00
55679;BME280;41573;51.446;-2.018;2023-04-15T13:45:11;101502.31;;;16.60;100.00
55679;BME280;41573;51.446;-2.018;2023-04-15T13:47:36;101500.91;;;16.67;100.00
55679;BME280;41573;51.446;-2.018;2023-04-15T13:50:02;101482.47;;;16.74;100.00
55679;BME280;41573;51.446;-2.018;2023-04-15T13:52:27;101480.38;;;16.53;100.00
55679;BME280;41573;51.446;-2.018;2023-04-15T13:54:53;101486.16;;;16.73;100.00
55679;BME280;41573;51.446;-2.018;2023-04-15T13:57:18;101503.03;;;16.88;100.00
55679;BME280;41573;51.446;-2.018;2023-04-15T13:59:44;101497.22;;;16.68;100.00
55679;BME280;41573;51.446;-2.018;2023-04-15T14:02:09;101511.69;;;16.54;100.00
55679;BME280;41573;51.446;-2.018;2023-04-15T14:04:35;101515.00;;;16.32;100.00
55679;BME280;41573;51.446;-2.018;2023-04-15T14:07:00;101523.06;;;16.19;100.00
55679;BME280;41573;51.446;-2.018;2023-04-15T14:09:25;101529.94;;;16.24;100.00
55679;BME280;41573;51.446;-2.018;2023-04-15T14:11:51;101531.88;;;16.34;100.00
55679;BME280;41573;51.446;-2.018;2023-04-15T14:14:16;101534.88;;;16.43;100.00
55679;BME280;41573;51.446;-2.018;2023-04-15T14:16:42;101524.56;;;17.25;100.00
55679;BME280;41573;51.446;-2.018;2023-04-15T14:19:07;101504.97;;;18.99;100.00
55679;BME280;41573;51.446;-2.018;2023-04-15T14:21:32;101460.03;;;20.78;100.00
55679;BME280;41573;51.446;-2.018;2023-04-15T14:23:58;101437.97;;;22.10;100.00
55679;BME280;41573;51.446;-2.018;2023-04-15T14:26:24;101443.41;;;23.03;100.00
55679;BME280;41573;51.446;-2.018;2023-04-15T14:28:49;101434.91;;;22.70;100.00
55679;BME280;41573;51.446;-2.018;2023-04-15T14:31:15;101423.41;;;22.01;100.00
55679;BME280;41573;51.446;-2.018;2023-04-15T14:33:40;101433.16;;;21.84;100.00
55679;BME280;41573;51.446;-2.018;2023-04-15T14:36:07;101432.91;;;22.35;100.00
55679;BME280;41573;51.446;-2.018;2023-04-15T14:38:36;101381.59;;;22.69;100.00
55679;BME280;41573;51.446;-2.018;2023-04-15T14:41:05;101367.97;;;22.97;100.00
55679;BME280;41573;51.446;-2.018;2023-04-15T14:43:32;101450.81;;;22.08;100.00
55679;BME280;41573;51.446;-2.018;2023-04-15T14:45:57;101390.16;;;20.53;100.00
55679;BME280;41573;51.446;-2.018;2023-04-15T14:48:23;101404.13;;;21.28;100.00
55679;BME280;41573;51.446;-2.018;2023-04-15T14:50:48;101368.56;;;21.50;100.00
55679;BME280;41573;51.446;-2.018;2023-04-15T14:53:14;101416.63;;;21.88;100.00
55679;BME280;41573;51.446;-2.018;2023-04-15T14:55:39;101400.56;;;22.14;100.00
55679;BME280;41573;51.446;-2.018;2023-04-15T14:58:05;101410.75;;;20.84;100.00
55679;BME280;41573;51.446;-2.018;2023-04-15T15:00:32;101455.34;;;19.11;100.00
55679;BME280;41573;51.446;-2.018;2023-04-15T15:02:57;101469.19;;;17.94;100.00
55679;BME280;41573;51.446;-2.018;2023-04-15T15:05:23;101469.81;;;17.37;100.00
55679;BME280;41573;51.446;-2.018;2023-04-15T15:07:48;101500.72;;;17.08;100.00
55679;BME280;41573;51.446;-2.018;2023-04-15T15:10:13;101504.84;;;16.87;100.00
55679;BME280;41573;51.446;-2.018;2023-04-15T15:12:39;101498.72;;;16.72;100.00
55679;BME280;41573;51.446;-2.018;2023-04-15T15:15:07;101497.03;;;16.71;100.00
55679;BME280;41573;51.446;-2.018;2023-04-15T15:17:34;101490.34;;;16.51;100.00
55679;BME280;41573;51.446;-2.018;2023-04-15T15:19:59;101488.56;;;16.26;100.00
55679;BME280;41573;51.446;-2.018;2023-04-15T15:22:25;101479.72;;;16.11;100.00
55679;BME280;41573;51.446;-2.018;2023-04-15T15:24:50;101491.25;;;16.13;100.00
55679;BME280;41573;51.446;-2.018;2023-04-15T15:27:15;101515.13;;;16.31;100.00
55679;BME280;41573;51.446;-2.018;2023-04-15T15:29:41;101520.50;;;16.44;100.00
55679;BME280;41573;51.446;-2.018;2023-04-15T15:32:06;101513.53;;;17.04;100.00
55679;BME280;41573;51.446;-2.018;2023-04-15T15:34:32;101488.06;;;17.69;100.00
55679;BME280;41573;51.446;-2.018;2023-04-15T15:36:57;101475.75;;;18.59;100.00
55679;BME280;41573;51.446;-2.018;2023-04-15T15:39:24;101437.47;;;20.06;100.00
55679;BME280;41573;51.446;-2.018;2023-04-15T15:41:50;101435.19;;;21.63;100.00
55679;BME280;41573;51.446;-2.018;2023-04-15T15:44:15;101452.59;;;22.75;100.00
55679;BME280;41573;51.446;-2.018;2023-04-15T15:46:41;101379.34;;;22.37;100.00
55679;BME280;41573;51.446;-2.018;2023-04-15T15:49:06;101401.13;;;21.41;100.00
55679;BME280;41573;51.446;-2.018;2023-04-15T15:51:32;101388.56;;;20.50;100.00
55679;BME280;41573;51.446;-2.018;2023-04-15T15:53:57;101361.50;;;19.36;100.00
55679;BME280;41573;51.446;-2.018;2023-04-15T15:56:23;101396.50;;;18.83;100.00
55679;BME280;41573;51.446;-2.018;2023-04-15T15:58:48;101419.75;;;18.40;100.00
55679;BME280;41573;51.446;-2.018;2023-04-15T16:01:14;101413.59;;;17.92;100.00
55679;BME280;41573;51.446;-2.018;2023-04-15T16:03:40;101438.09;;;17.65;100.00
55679;BME280;41573;51.446;-2.018;2023-04-15T16:06:05;101461.28;;;17.44;100.00
55679;BME280;41573;51.446;-2.018;2023-04-15T16:08:31;101457.44;;;17.35;100.00
55679;BME280;41573;51.446;-2.018;2023-04-15T16:10:56;101468.03;;;17.25;100.00
55679;BME280;41573;51.446;-2.018;2023-04-15T16:13:22;101464.16;;;17.29;100.00
55679;BME280;41573;51.446;-2.018;2023-04-15T16:15:48;101469.72;;;17.15;100.00
55679;BME280;41573;51.446;-2.018;2023-04-15T16:18:15;101482.63;;;17.10;100.00
55679;BME280;41573;51.446;-2.018;2023-04-15T16:20:40;101466.22;;;16.88;100.00
55679;BME280;41573;51.446;-2.018;2023-04-15T16:23:14;101483.75;;;16.81;100.00
55679;BME280;41573;51.446;-2.018;2023-04-15T16:25:40;101468.84;;;16.77;100.00
55679;BME280;41573;51.446;-2.018;2023-04-15T16:28:06;101463.25;;;16.67;100.00
55679;BME280;41573;51.446;-2.018;2023-04-15T16:30:38;101478.72;;;16.77;100.00
55679;BME280;41573;51.446;-2.018;2023-04-15T16:33:04;101491.84;;;16.68;100.00
55679;BME280;41573;51.446;-2.018;2023-04-15T16:35:29;101480.47;;;16.65;100.00
55679;BME280;41573;51.446;-2.018;2023-04-15T16:37:55;101469.72;;;16.65;100.00
55679;BME280;41573;51.446;-2.018;2023-04-15T16:40:20;101471.44;;;16.53;100.00
55679;BME280;41573;51.446;-2.018;2023-04-15T16:42:46;101489.06;;;16.44;100.00
55679;BME280;41573;51.446;-2.018;2023-04-15T16:45:11;101481.78;;;16.33;100.00
55679;BME280;41573;51.446;-2.018;2023-04-15T16:47:37;101490.38;;;16.26;100.00
55679;BME280;41573;51.446;-2.018;2023-04-15T16:50:02;101493.38;;;16.21;100.00
55679;BME280;41573;51.446;-2.018;2023-04-15T16:52:28;101491.44;;;16.23;100.00
55679;BME280;41573;51.446;-2.018;2023-04-15T16:54:53;101501.56;;;16.32;100.00
55679;BME280;41573;51.446;-2.018;2023-04-15T16:57:19;101488.22;;;16.18;100.00
55679;BME280;41573;51.446;-2.018;2023-04-15T16:59:44;101501.44;;;16.34;100.00
55679;BME280;41573;51.446;-2.018;2023-04-15T17:02:11;101507.78;;;16.33;100.00
55679;BME280;41573;51.446;-2.018;2023-04-15T17:04:37;101511.34;;;16.33;100.00
55679;BME280;41573;51.446;-2.018;2023-04-15T17:07:03;101497.81;;;16.22;100.00
55679;BME280;41573;51.446;-2.018;2023-04-15T17:09:30;101497.38;;;16.41;100.00
55679;BME280;41573;51.446;-2.018;2023-04-15T17:11:55;101505.22;;;16.44;100.00
55679;BME280;41573;51.446;-2.018;2023-04-15T17:14:21;101506.31;;;16.42;100.00
55679;BME280;41573;51.446;-2.018;2023-04-15T17:16:47;101537.47;;;16.31;100.00
55679;BME280;41573;51.446;-2.018;2023-04-15T17:19:12;101504.81;;;16.25;100.00
55679;BME280;41573;51.446;-2.018;2023-04-15T17:21:38;101505.97;;;16.20;100.00
55679;BME280;41573;51.446;-2.018;2023-04-15T17:24:04;101525.41;;;16.24;100.00
55679;BME280;41573;51.446;-2.018;2023-04-15T17:26:30;101525.19;;;16.27;100.00
55679;BME280;41573;51.446;-2.018;2023-04-15T17:28:56;101525.19;;;16.53;100.00
55679;BME280;41573;51.446;-2.018;2023-04-15T17:31:21;101532.50;;;16.77;100.00
55679;BME280;41573;51.446;-2.018;2023-04-15T17:33:46;101500.66;;;16.96;100.00
55679;BME280;41573;51.446;-2.018;2023-04-15T17:36:13;101499.06;;;17.18;100.00
55679;BME280;41573;51.446;-2.018;2023-04-15T17:38:38;101506.25;;;17.30;100.00
55679;BME280;41573;51.446;-2.018;2023-04-15T17:41:04;101508.47;;;17.36;100.00
55679;BME280;41573;51.446;-2.018;2023-04-15T17:43:32;101479.38;;;17.17;100.00
55679;BME280;41573;51.446;-2.018;2023-04-15T17:45:57;101520.91;;;16.89;100.00
55679;BME280;41573;51.446;-2.018;2023-04-15T17:48:24;101497.66;;;16.75;100.00
55679;BME280;41573;51.446;-2.018;2023-04-15T17:50:50;101493.22;;;16.74;100.00
55679;BME280;41573;51.446;-2.018;2023-04-15T17:53:15;101489.47;;;16.77;100.00
55679;BME280;41573;51.446;-2.018;2023-04-15T17:55:41;101498.31;;;16.79;100.00
55679;BME280;41573;51.446;-2.018;2023-04-15T17:58:06;101484.09;;;16.77;100.00
55679;BME280;41573;51.446;-2.018;2023-04-15T18:00:31;101481.97;;;16.69;100.00
55679;BME280;41573;51.446;-2.018;2023-04-15T18:02:57;101482.38;;;16.63;100.00
55679;BME280;41573;51.446;-2.018;2023-04-15T18:05:22;101478.97;;;16.61;100.00
55679;BME280;41573;51.446;-2.018;2023-04-15T18:07:50;101491.13;;;16.53;100.00
55679;BME280;41573;51.446;-2.018;2023-04-15T18:10:16;101523.41;;;16.41;100.00
55679;BME280;41573;51.446;-2.018;2023-04-15T18:12:41;101507.38;;;16.39;100.00
55679;BME280;41573;51.446;-2.018;2023-04-15T18:15:07;101490.47;;;16.37;100.00
55679;BME280;41573;51.446;-2.018;2023-04-15T18:17:33;101500.16;;;16.27;100.00
55679;BME280;41573;51.446;-2.018;2023-04-15T18:19:59;101511.66;;;16.16;100.00
55679;BME280;41573;51.446;-2.018;2023-04-15T18:22:25;101513.16;;;16.07;100.00
55679;BME280;41573;51.446;-2.018;2023-04-15T18:24:50;101527.47;;;16.08;100.00
55679;BME280;41573;51.446;-2.018;2023-04-15T18:27:16;101522.06;;;15.95;100.00
55679;BME280;41573;51.446;-2.018;2023-04-15T18:29:41;101532.47;;;15.87;100.00
55679;BME280;41573;51.446;-2.018;2023-04-15T18:32:08;101532.84;;;15.80;100.00
55679;BME280;41573;51.446;-2.018;2023-04-15T18:34:33;101549.16;;;15.50;100.00
55679;BME280;41573;51.446;-2.018;2023-04-15T18:36:59;101569.34;;;15.28;100.00
55679;BME280;41573;51.446;-2.018;2023-04-15T18:39:25;101582.81;;;15.14;100.00
55679;BME280;41573;51.446;-2.018;2023-04-15T18:41:51;101575.81;;;14.97;100.00
55679;BME280;41573;51.446;-2.018;2023-04-15T18:44:16;101586.06;;;14.90;100.00
55679;BME280;41573;51.446;-2.018;2023-04-15T18:46:42;101604.34;;;14.83;100.00
55679;BME280;41573;51.446;-2.018;2023-04-15T18:49:07;101588.66;;;14.92;100.00
55679;BME280;41573;51.446;-2.018;2023-04-15T18:51:33;101576.19;;;14.91;100.00
55679;BME280;41573;51.446;-2.018;2023-04-15T18:53:58;101577.44;;;14.85;100.00
55679;BME280;41573;51.446;-2.018;2023-04-15T18:56:24;101589.44;;;14.49;100.00
55679;BME280;41573;51.446;-2.018;2023-04-15T18:58:49;101583.88;;;14.38;100.00
55679;BME280;41573;51.446;-2.018;2023-04-15T19:01:14;101584.84;;;14.51;100.00
55679;BME280;41573;51.446;-2.018;2023-04-15T19:03:40;101577.28;;;14.43;100.00
55679;BME280;41573;51.446;-2.018;2023-04-15T19:06:06;101596.13;;;14.42;100.00
55679;BME280;41573;51.446;-2.018;2023-04-15T19:08:31;101600.16;;;14.35;100.00
55679;BME280;41573;51.446;-2.018;2023-04-15T19:10:57;101596.88;;;14.29;100.00
55679;BME280;41573;51.446;-2.018;2023-04-15T19:13:22;101600.78;;;14.24;100.00
55679;BME280;41573;51.446;-2.018;2023-04-15T19:15:50;101615.38;;;14.18;100.00
55679;BME280;41573;51.446;-2.018;2023-04-15T19:18:16;101634.28;;;14.01;100.00
55679;BME280;41573;51.446;-2.018;2023-04-15T19:20:41;101648.97;;;13.93;100.00
55679;BME280;41573;51.446;-2.018;2023-04-15T19:23:07;101640.63;;;13.68;100.00
55679;BME280;41573;51.446;-2.018;2023-04-15T19:25:32;101645.09;;;13.51;100.00
55679;BME280;41573;51.446;-2.018;2023-04-15T19:27:58;101639.56;;;13.38;100.00
55679;BME280;41573;51.446;-2.018;2023-04-15T19:30:24;101647.75;;;13.35;100.00
55679;BME280;41573;51.446;-2.018;2023-04-15T19:32:50;101652.53;;;13.28;100.00
55679;BME280;41573;51.446;-2.018;2023-04-15T19:35:16;101647.00;;;13.16;100.00
55679;BME280;41573;51.446;-2.018;2023-04-15T19:37:41;101671.16;;;13.14;100.00
55679;BME280;41573;51.446;-2.018;2023-04-15T19:40:08;101666.31;;;13.05;100.00
55679;BME280;41573;51.446;-2.018;2023-04-15T19:42:34;101673.72;;;13.00;100.00
55679;BME280;41573;51.446;-2.018;2023-04-15T19:45:00;101677.75;;;12.91;100.00
55679;BME280;41573;51.446;-2.018;2023-04-15T19:47:26;101692.13;;;12.88;100.00
55679;BME280;41573;51.446;-2.018;2023-04-15T19:49:52;101697.56;;;12.87;100.00
55679;BME280;41573;51.446;-2.018;2023-04-15T19:52:17;101696.19;;;12.96;100.00
55679;BME280;41573;51.446;-2.018;2023-04-15T19:54:43;101696.91;;;12.82;100.00
55679;BME280;41573;51.446;-2.018;2023-04-15T19:57:09;101704.09;;;12.81;100.00
55679;BME280;41573;51.446;-2.018;2023-04-15T19:59:34;101714.84;;;12.80;100.00
55679;BME280;41573;51.446;-2.018;2023-04-15T20:02:05;101718.06;;;12.69;100.00
55679;BME280;41573;51.446;-2.018;2023-04-15T20:04:37;101731.59;;;12.48;100.00
55679;BME280;41573;51.446;-2.018;2023-04-15T20:07:16;101734.88;;;12.36;100.00
55679;BME280;41573;51.446;-2.018;2023-04-15T20:10:08;101743.47;;;12.23;100.00
55679;BME280;41573;51.446;-2.018;2023-04-15T20:12:38;101730.41;;;12.17;100.00
55679;BME280;41573;51.446;-2.018;2023-04-15T20:15:06;101742.75;;;12.20;100.00
55679;BME280;41573;51.446;-2.018;2023-04-15T20:17:32;101744.72;;;12.16;100.00
55679;BME280;41573;51.446;-2.018;2023-04-15T20:19:58;101743.94;;;12.14;100.00
55679;BME280;41573;51.446;-2.018;2023-04-15T20:22:23;101751.13;;;12.12;100.00
55679;BME280;41573;51.446;-2.018;2023-04-15T20:24:55;101763.56;;;11.94;100.00
55679;BME280;41573;51.446;-2.018;2023-04-15T20:27:30;101762.97;;;11.87;100.00
55679;BME280;41573;51.446;-2.018;2023-04-15T20:30:07;101774.19;;;11.75;100.00
55679;BME280;41573;51.446;-2.018;2023-04-15T20:32:57;101765.03;;;11.62;100.00
55679;BME280;41573;51.446;-2.018;2023-04-15T20:35:26;101781.53;;;11.51;100.00
55679;BME280;41573;51.446;-2.018;2023-04-15T20:37:55;101786.13;;;11.47;100.00
55679;BME280;41573;51.446;-2.018;2023-04-15T20:40:23;101792.53;;;11.43;100.00
55679;BME280;41573;51.446;-2.018;2023-04-15T20:42:58;101803.53;;;11.35;100.00
55679;BME280;41573;51.446;-2.018;2023-04-15T20:45:30;101811.75;;;11.31;100.00
55679;BME280;41573;51.446;-2.018;2023-04-15T20:51:27;101835.41;;;11.18;100.00
55679;BME280;41573;51.446;-2.018;2023-04-15T20:54:04;101842.56;;;11.17;100.00